Airport View

Enter AWOS ICAO identifier for current METAR.

ex. KFNL

KFNL 220056Z AUTO 36007KT 10SM CLR M09/M12 A3014 RMK AO2 SLP283 T10891122 FZRANO

22 Feb 2018 01:11

Frequency: 135.075

Phone: 970-669-9187

Other Area AWOS: KGXY - KLMO - KEIK - KBDU

TAF KBJC 212323Z 2200/2224 33010KT P6SM FEW100 SCT200 FM220200 VRB04KT P6SM FEW050 SCT080 FM220600 25006KT P6SM SCT030 BKN050 FM221100 34006KT P6SM VCFG BKN010 OVC025 FM221600 VRB05KT P6SM VCSH OVC010 FM221900 02005KT P6SM VCSH SCT010 OVC020